sim
Sign-in with your pilot id or email,
or register
Callsign
Passwort

Schedule Details

Flight Number: DLH1713
Departure: Zagreb Franjo Tudman Airport (LDZA) at 12:10
Arrival: Munich Airport (EDDM) at 13:15
Route: Lufthansa Passenger Schedule. Enter filed route here before submitting Pirep.

Weather Information
Getting current METAR information for LDZA 291630Z 19003KT CAVOK 17/10 Q1016 NOSIG
Getting current METAR information for EDDM 291620Z 27008KT 9999 BKN020 12/09 Q1019 NOSIG

Schedule Frequency

Route Map